createdAt,value
2022-11-30T00:00:34.296Z,0.00
2022-11-30T00:01:34.250Z,0.00
2022-11-30T00:02:34.329Z,0.00
2022-11-30T00:03:34.216Z,0.00
2022-11-30T00:04:34.228Z,0.00
2022-11-30T00:05:34.234Z,0.00
2022-11-30T00:06:34.216Z,0.00
2022-11-30T00:07:34.206Z,0.00
2022-11-30T00:08:34.172Z,0.00
2022-11-30T00:09:34.153Z,0.00
2022-11-30T00:10:34.192Z,0.00
2022-11-30T00:11:34.149Z,0.00
2022-11-30T00:12:34.169Z,0.00
2022-11-30T00:13:34.122Z,0.00
2022-11-30T00:14:34.119Z,0.00
2022-11-30T00:15:34.090Z,0.00
2022-11-30T00:16:34.136Z,0.00
2022-11-30T00:17:34.056Z,0.00
2022-11-30T00:18:34.075Z,0.00
2022-11-30T00:19:34.034Z,0.00
2022-11-30T00:20:34.062Z,0.00
2022-11-30T00:21:34.024Z,0.00
2022-11-30T00:22:34.014Z,0.00
2022-11-30T00:23:33.986Z,0.00
2022-11-30T00:24:33.993Z,0.00
2022-11-30T00:25:33.973Z,0.00
2022-11-30T00:26:33.982Z,0.00
2022-11-30T00:27:33.942Z,0.00
2022-11-30T00:28:33.983Z,0.00
2022-11-30T00:29:33.918Z,0.00
2022-11-30T00:30:33.953Z,0.00
2022-11-30T00:31:33.940Z,0.00
2022-11-30T00:32:33.910Z,0.00
2022-11-30T00:33:33.863Z,0.00
2022-11-30T00:34:33.869Z,0.00
2022-11-30T00:35:33.844Z,0.00
2022-11-30T00:36:33.860Z,0.00
2022-11-30T00:37:33.833Z,0.00
2022-11-30T00:38:33.835Z,0.00
2022-11-30T00:39:35.600Z,0.00
2022-11-30T00:40:33.804Z,0.00
2022-11-30T00:41:33.811Z,0.00
2022-11-30T00:42:33.814Z,0.00
2022-11-30T00:43:33.753Z,0.00
2022-11-30T00:44:33.759Z,0.00
2022-11-30T00:45:33.741Z,0.00
2022-11-30T00:46:33.805Z,0.00
2022-11-30T00:47:33.701Z,0.00
2022-11-30T00:48:33.742Z,0.00
2022-11-30T00:49:33.678Z,0.00
2022-11-30T00:50:33.683Z,0.00
2022-11-30T00:51:33.675Z,0.00
2022-11-30T00:52:33.671Z,0.00
2022-11-30T00:53:33.637Z,0.00
2022-11-30T00:54:33.646Z,0.00
2022-11-30T00:55:33.615Z,0.00
2022-11-30T00:56:33.626Z,0.00
2022-11-30T00:57:33.593Z,0.00
2022-11-30T00:58:33.607Z,0.00
2022-11-30T00:59:33.571Z,0.00
2022-11-30T01:00:33.577Z,0.00
2022-11-30T01:01:33.635Z,0.00
2022-11-30T01:02:33.594Z,0.00
2022-11-30T01:03:33.575Z,0.00
2022-11-30T01:04:33.544Z,0.00
2022-11-30T01:05:33.525Z,0.00
2022-11-30T01:06:33.514Z,0.00
2022-11-30T01:07:33.543Z,0.00
2022-11-30T01:08:33.532Z,0.00
2022-11-30T01:09:33.458Z,0.00
2022-11-30T01:10:33.465Z,0.00
2022-11-30T01:11:33.451Z,0.00
2022-11-30T01:12:33.452Z,0.00
2022-11-30T01:13:33.426Z,0.00
2022-11-30T01:14:33.418Z,0.00
2022-11-30T01:15:33.441Z,0.00
2022-11-30T01:16:33.395Z,0.00
2022-11-30T01:17:33.369Z,0.00
2022-11-30T01:18:33.368Z,0.00
2022-11-30T01:19:33.385Z,0.00
2022-11-30T01:20:33.350Z,0.00
2022-11-30T01:21:33.342Z,0.00
2022-11-30T01:22:33.324Z,0.00
2022-11-30T01:23:33.284Z,0.00
2022-11-30T01:24:33.286Z,0.00
2022-11-30T01:25:33.270Z,0.00
2022-11-30T01:26:33.261Z,0.00
2022-11-30T01:27:33.265Z,0.00
2022-11-30T01:28:33.230Z,0.00
2022-11-30T01:29:33.209Z,0.00
2022-11-30T01:30:33.267Z,0.00
2022-11-30T01:31:33.208Z,0.00
2022-11-30T01:32:33.192Z,0.00
2022-11-30T01:33:33.188Z,0.00
2022-11-30T01:34:33.176Z,0.00
2022-11-30T01:35:33.162Z,0.00
2022-11-30T01:36:33.160Z,0.00
2022-11-30T01:37:33.127Z,0.00
2022-11-30T01:38:33.120Z,0.00
2022-11-30T01:39:33.097Z,0.00
2022-11-30T01:40:33.097Z,0.00
2022-11-30T01:41:33.102Z,0.00
2022-11-30T01:42:33.083Z,0.00
2022-11-30T01:43:33.058Z,0.00
2022-11-30T01:44:33.057Z,0.00
2022-11-30T01:45:33.034Z,0.00
2022-11-30T01:46:33.097Z,0.00
2022-11-30T01:47:33.023Z,0.00
2022-11-30T01:48:33.007Z,0.00
2022-11-30T01:49:33.009Z,0.00
2022-11-30T01:50:33.022Z,0.00
2022-11-30T01:51:32.973Z,0.00
2022-11-30T01:52:32.968Z,0.00
2022-11-30T01:53:32.940Z,0.00
2022-11-30T01:54:32.934Z,0.00
2022-11-30T01:55:32.903Z,0.00
2022-11-30T01:56:32.927Z,0.00
2022-11-30T01:57:32.889Z,0.00
2022-11-30T01:58:32.889Z,0.00
2022-11-30T01:59:32.857Z,0.00
2022-11-30T02:00:32.880Z,0.00
2022-11-30T02:01:32.899Z,0.00
2022-11-30T02:02:32.876Z,0.00
2022-11-30T02:03:32.816Z,0.00
2022-11-30T02:04:32.841Z,0.00
2022-11-30T02:05:32.797Z,0.00
2022-11-30T02:06:32.821Z,0.00
2022-11-30T02:07:32.988Z,0.00
2022-11-30T02:08:32.900Z,0.00
2022-11-30T02:09:32.753Z,0.00
2022-11-30T02:10:32.859Z,0.00
2022-11-30T02:11:32.730Z,0.00
2022-11-30T02:12:32.717Z,0.00
2022-11-30T02:13:32.702Z,0.00
2022-11-30T02:14:32.699Z,0.00
2022-11-30T02:15:32.721Z,0.00
2022-11-30T02:16:32.702Z,0.00
2022-11-30T02:17:32.661Z,0.00
2022-11-30T02:18:32.658Z,0.00
2022-11-30T02:19:32.632Z,0.00
2022-11-30T02:20:32.626Z,0.00
2022-11-30T02:21:32.634Z,0.00
2022-11-30T02:22:32.614Z,0.00
2022-11-30T02:23:35.386Z,0.00
2022-11-30T02:24:33.577Z,0.00
2022-11-30T02:25:32.563Z,0.00
2022-11-30T02:26:32.564Z,0.00
2022-11-30T02:27:32.540Z,0.00
2022-11-30T02:28:32.550Z,0.00
2022-11-30T02:29:32.508Z,0.00
2022-11-30T02:30:32.516Z,0.00
2022-11-30T02:31:32.492Z,0.00
2022-11-30T02:32:32.499Z,0.00
2022-11-30T02:33:32.468Z,0.00
2022-11-30T02:34:32.480Z,0.00
2022-11-30T02:35:32.454Z,0.00
2022-11-30T02:36:32.438Z,0.00
2022-11-30T02:37:32.428Z,0.00
2022-11-30T02:38:32.423Z,0.00
2022-11-30T02:39:32.408Z,0.00
2022-11-30T02:40:32.411Z,0.00
2022-11-30T02:41:36.448Z,0.00
2022-11-30T02:42:33.398Z,0.00
2022-11-30T02:43:32.348Z,0.00
2022-11-30T02:44:32.361Z,0.00
2022-11-30T02:45:32.337Z,0.00
2022-11-30T02:46:32.347Z,0.00
2022-11-30T02:47:32.302Z,0.00
2022-11-30T02:48:32.357Z,0.00
2022-11-30T02:49:32.304Z,0.00
2022-11-30T02:50:32.279Z,0.00
2022-11-30T02:51:32.248Z,0.00
2022-11-30T02:52:32.252Z,0.00
2022-11-30T02:53:32.240Z,0.00
2022-11-30T02:54:32.239Z,0.00
2022-11-30T02:55:32.221Z,0.00
2022-11-30T02:56:32.210Z,0.00
2022-11-30T02:57:32.170Z,0.00
2022-11-30T02:58:32.218Z,0.00
2022-11-30T02:59:32.167Z,0.00
2022-11-30T03:00:32.160Z,0.00
2022-11-30T03:01:32.174Z,0.00
2022-11-30T03:02:32.170Z,0.00
2022-11-30T03:03:32.127Z,0.00
2022-11-30T03:04:32.118Z,0.00
2022-11-30T03:05:32.089Z,0.00
2022-11-30T03:06:32.095Z,0.00
2022-11-30T03:07:32.127Z,0.00
2022-11-30T03:08:32.102Z,0.00
2022-11-30T03:09:32.038Z,0.00
2022-11-30T03:10:32.049Z,0.00
2022-11-30T03:11:32.029Z,0.00
2022-11-30T03:12:32.041Z,0.00
2022-11-30T03:13:32.029Z,0.00
2022-11-30T03:14:31.998Z,0.00
2022-11-30T03:15:32.008Z,0.00
2022-11-30T03:16:31.981Z,0.00
2022-11-30T03:17:31.976Z,0.00
2022-11-30T03:18:31.936Z,0.00
2022-11-30T03:19:31.960Z,0.00
2022-11-30T03:20:31.906Z,0.00
2022-11-30T03:21:31.930Z,0.00
2022-11-30T03:22:31.890Z,0.00
2022-11-30T03:23:31.915Z,0.00
2022-11-30T03:24:31.889Z,0.00
2022-11-30T03:25:31.884Z,0.00
2022-11-30T03:26:31.841Z,0.00
2022-11-30T03:27:31.851Z,0.00
2022-11-30T03:28:31.840Z,0.00
2022-11-30T03:29:31.827Z,0.00
2022-11-30T03:30:31.791Z,0.00
2022-11-30T03:31:31.922Z,0.00
2022-11-30T03:32:31.784Z,0.00
2022-11-30T03:33:31.802Z,0.00
2022-11-30T03:34:31.780Z,0.00
2022-11-30T03:35:31.765Z,0.00
2022-11-30T03:36:31.734Z,0.00
2022-11-30T03:37:31.732Z,0.00
2022-11-30T03:38:31.752Z,0.00
2022-11-30T03:39:31.752Z,0.00
2022-11-30T03:40:31.706Z,0.00
2022-11-30T03:41:31.710Z,0.00
2022-11-30T03:42:31.659Z,0.00
2022-11-30T03:43:31.683Z,0.00
2022-11-30T03:44:31.671Z,0.00
2022-11-30T03:45:31.648Z,0.00
2022-11-30T03:46:31.711Z,0.00
2022-11-30T03:47:31.671Z,0.00
2022-11-30T03:48:31.581Z,0.00
2022-11-30T03:49:31.666Z,0.00
2022-11-30T03:50:31.681Z,0.00
2022-11-30T03:51:31.652Z,0.00
2022-11-30T03:52:31.536Z,0.00
2022-11-30T03:53:31.558Z,0.00
2022-11-30T03:54:31.518Z,0.00
2022-11-30T03:55:31.526Z,0.00
2022-11-30T03:56:31.498Z,0.00
2022-11-30T03:57:31.513Z,0.00
2022-11-30T03:58:31.483Z,0.00
2022-11-30T03:59:31.491Z,0.00
2022-11-30T04:00:31.459Z,0.00
2022-11-30T04:01:31.503Z,0.00
2022-11-30T04:02:31.493Z,0.00
2022-11-30T04:03:31.442Z,0.00
2022-11-30T04:04:31.415Z,0.00
2022-11-30T04:05:31.405Z,0.00
2022-11-30T04:06:31.374Z,0.00
2022-11-30T04:07:31.416Z,0.00
2022-11-30T04:08:31.374Z,0.00
2022-11-30T04:09:31.350Z,0.00
2022-11-30T04:10:31.317Z,0.00
2022-11-30T04:11:31.365Z,0.00
2022-11-30T04:12:31.301Z,0.00
2022-11-30T04:13:31.343Z,0.00
2022-11-30T04:14:31.279Z,0.00
2022-11-30T04:15:31.284Z,0.00
2022-11-30T04:16:31.321Z,0.00
2022-11-30T04:17:31.271Z,0.00
2022-11-30T04:18:31.235Z,0.00
2022-11-30T04:19:31.250Z,0.00
2022-11-30T04:20:31.697Z,0.00
2022-11-30T04:21:31.212Z,0.00
2022-11-30T04:22:31.185Z,0.00
2022-11-30T04:23:31.215Z,0.00
2022-11-30T04:24:31.165Z,0.00
2022-11-30T04:25:31.175Z,0.00
2022-11-30T04:26:31.137Z,0.00
2022-11-30T04:27:31.135Z,0.00
2022-11-30T04:28:31.129Z,0.00
2022-11-30T04:29:31.104Z,0.00
2022-11-30T04:30:31.124Z,0.00
2022-11-30T04:31:31.162Z,0.00
2022-11-30T04:32:31.065Z,0.00
2022-11-30T04:33:31.082Z,0.00
2022-11-30T04:34:31.053Z,0.00
2022-11-30T04:35:31.071Z,0.00
2022-11-30T04:36:31.026Z,0.00
2022-11-30T04:37:31.021Z,0.00
2022-11-30T04:38:31.003Z,0.00
2022-11-30T04:39:31.013Z,0.00
2022-11-30T04:40:30.974Z,0.00
2022-11-30T04:41:30.975Z,0.00
2022-11-30T04:42:30.943Z,0.00
2022-11-30T04:43:30.976Z,0.00
2022-11-30T04:44:30.936Z,0.00
2022-11-30T04:45:35.147Z,0.00
2022-11-30T04:46:30.905Z,0.00
2022-11-30T04:47:30.899Z,0.00
2022-11-30T04:48:30.880Z,0.00
2022-11-30T04:49:30.914Z,0.00
2022-11-30T04:50:30.856Z,0.00
2022-11-30T04:51:30.869Z,0.00
2022-11-30T04:52:30.841Z,0.00
2022-11-30T04:53:30.852Z,0.00
2022-11-30T04:54:30.806Z,0.00
2022-11-30T04:55:30.817Z,0.00
2022-11-30T04:56:30.790Z,0.00
2022-11-30T04:57:30.786Z,0.00
2022-11-30T04:58:30.785Z,0.00
2022-11-30T04:59:30.769Z,0.00
2022-11-30T05:00:30.739Z,0.00
2022-11-30T05:01:30.798Z,0.00
2022-11-30T05:02:30.734Z,0.00
2022-11-30T05:03:30.723Z,0.00
2022-11-30T05:04:30.765Z,0.00
2022-11-30T05:05:30.724Z,0.00
2022-11-30T05:06:30.669Z,0.00
2022-11-30T05:07:30.719Z,0.00
2022-11-30T05:08:30.645Z,0.00
2022-11-30T05:09:30.651Z,0.00
2022-11-30T05:10:30.614Z,0.00
2022-11-30T05:11:30.617Z,0.00
2022-11-30T05:12:30.589Z,0.00
2022-11-30T05:13:30.611Z,0.00
2022-11-30T05:14:30.562Z,0.00
2022-11-30T05:15:30.574Z,0.00
2022-11-30T05:16:30.593Z,0.00
2022-11-30T05:17:30.548Z,0.00
2022-11-30T05:18:30.548Z,0.00
2022-11-30T05:19:30.561Z,0.00
2022-11-30T05:20:30.497Z,0.00
2022-11-30T05:21:30.501Z,0.00
2022-11-30T05:22:30.478Z,0.00
2022-11-30T05:23:30.475Z,0.00
2022-11-30T05:24:30.465Z,0.00
2022-11-30T05:25:30.475Z,0.00
2022-11-30T05:26:30.430Z,0.00
2022-11-30T05:27:30.424Z,0.00
2022-11-30T05:28:30.432Z,0.00
2022-11-30T05:29:30.420Z,0.00
2022-11-30T05:30:30.383Z,0.00
2022-11-30T05:31:30.472Z,0.00
2022-11-30T05:32:30.361Z,0.00
2022-11-30T05:33:30.361Z,0.00
2022-11-30T05:34:30.345Z,0.00
2022-11-30T05:35:30.344Z,0.00
2022-11-30T05:36:30.327Z,0.00
2022-11-30T05:37:30.328Z,0.00
2022-11-30T05:38:30.288Z,0.00
2022-11-30T05:39:30.312Z,0.00
2022-11-30T05:40:30.264Z,0.00
2022-11-30T05:41:30.278Z,0.00
2022-11-30T05:42:30.247Z,0.00
2022-11-30T05:43:30.248Z,0.00
2022-11-30T05:44:30.217Z,0.00
2022-11-30T05:45:30.249Z,0.00
2022-11-30T05:46:30.223Z,0.00
2022-11-30T05:47:30.198Z,0.00
2022-11-30T05:48:30.169Z,0.00
2022-11-30T05:49:30.234Z,0.00
2022-11-30T05:50:30.147Z,0.00
2022-11-30T05:51:30.164Z,0.00
2022-11-30T05:52:30.132Z,0.00
2022-11-30T05:53:30.137Z,0.00
2022-11-30T05:54:30.114Z,0.00
2022-11-30T05:55:30.107Z,0.00
2022-11-30T05:56:30.086Z,0.00
2022-11-30T05:57:30.088Z,0.00
2022-11-30T05:58:30.063Z,0.00
2022-11-30T05:59:30.067Z,0.00
2022-11-30T06:00:30.027Z,0.00
2022-11-30T06:01:30.069Z,0.00
2022-11-30T06:02:30.152Z,0.00
2022-11-30T06:03:30.059Z,0.00
2022-11-30T06:04:29.982Z,0.00
2022-11-30T06:05:29.983Z,0.00
2022-11-30T06:06:29.993Z,0.00
2022-11-30T06:07:30.012Z,0.00
2022-11-30T06:08:29.943Z,0.00
2022-11-30T06:09:29.938Z,0.00
2022-11-30T06:10:29.922Z,0.00
2022-11-30T06:11:29.931Z,0.00
2022-11-30T06:12:29.894Z,0.00
2022-11-30T06:13:29.892Z,0.00
2022-11-30T06:14:29.862Z,0.00
2022-11-30T06:15:29.872Z,0.00
2022-11-30T06:16:29.861Z,0.00
2022-11-30T06:17:29.839Z,0.00
2022-11-30T06:18:29.841Z,0.00
2022-11-30T06:19:29.819Z,0.00
2022-11-30T06:20:29.819Z,0.00
2022-11-30T06:21:29.790Z,0.00
2022-11-30T06:22:29.760Z,0.00
2022-11-30T06:23:29.808Z,0.00
2022-11-30T06:24:29.771Z,0.00
2022-11-30T06:25:29.745Z,0.00
2022-11-30T06:26:29.721Z,0.00
2022-11-30T06:27:29.727Z,0.00
2022-11-30T06:28:29.715Z,0.00
2022-11-30T06:29:29.701Z,0.00
2022-11-30T06:30:29.686Z,0.00
2022-11-30T06:31:29.721Z,0.00
2022-11-30T06:32:29.656Z,0.00
2022-11-30T06:33:29.688Z,0.00
2022-11-30T06:34:29.642Z,0.00
2022-11-30T06:35:29.630Z,0.00
2022-11-30T06:36:35.548Z,0.00
2022-11-30T06:37:30.603Z,0.00
2022-11-30T06:38:29.598Z,0.00
2022-11-30T06:39:57.876Z,0.00
2022-11-30T06:40:30.558Z,0.00
2022-11-30T06:41:29.559Z,0.00
2022-11-30T06:42:29.550Z,0.00
2022-11-30T06:43:29.569Z,0.00
2022-11-30T06:44:29.510Z,0.00
2022-11-30T06:45:29.554Z,0.00
2022-11-30T06:46:29.492Z,0.00
2022-11-30T06:47:29.483Z,0.00
2022-11-30T06:48:29.449Z,0.00
2022-11-30T06:49:29.495Z,0.00
2022-11-30T06:50:29.456Z,0.00
2022-11-30T06:51:29.442Z,0.00
2022-11-30T06:52:29.411Z,0.00
2022-11-30T06:53:29.439Z,0.00
2022-11-30T06:54:29.387Z,0.00
2022-11-30T06:55:29.391Z,0.00
2022-11-30T06:56:29.438Z,0.00
2022-11-30T06:57:29.385Z,0.00
2022-11-30T06:58:29.346Z,4.00
2022-11-30T06:59:29.386Z,4.00
2022-11-30T07:00:29.391Z,4.00
2022-11-30T07:01:29.363Z,0.00
2022-11-30T07:02:29.303Z,0.00
2022-11-30T07:03:29.300Z,0.00
2022-11-30T07:04:29.308Z,4.00
2022-11-30T07:05:29.289Z,4.00
2022-11-30T07:06:29.253Z,4.00
2022-11-30T07:07:29.310Z,4.00
2022-11-30T07:08:29.229Z,0.00
2022-11-30T07:09:29.253Z,4.00
2022-11-30T07:10:29.244Z,4.00
2022-11-30T07:11:29.222Z,4.00
2022-11-30T07:12:29.204Z,8.00
2022-11-30T07:13:29.187Z,4.00
2022-11-30T07:14:29.171Z,4.00
2022-11-30T07:15:29.160Z,4.00
2022-11-30T07:16:29.226Z,8.00
2022-11-30T07:17:29.144Z,8.00
2022-11-30T07:18:32.162Z,4.00
2022-11-30T07:19:29.118Z,8.00
2022-11-30T07:20:29.082Z,8.00
2022-11-30T07:21:29.107Z,8.00
2022-11-30T07:22:29.082Z,8.00
2022-11-30T07:23:29.072Z,8.00
2022-11-30T07:24:29.043Z,12.00
2022-11-30T07:25:29.064Z,12.00
2022-11-30T07:26:29.023Z,12.00
2022-11-30T07:27:29.025Z,12.00
2022-11-30T07:28:29.008Z,12.00
2022-11-30T07:29:28.990Z,12.00
2022-11-30T07:30:28.962Z,12.00
2022-11-30T07:31:29.018Z,16.00
2022-11-30T07:32:28.962Z,12.00
2022-11-30T07:33:28.944Z,16.00
2022-11-30T07:34:28.935Z,12.00
2022-11-30T07:35:28.901Z,16.00
2022-11-30T07:36:28.909Z,16.00
2022-11-30T07:37:28.897Z,16.00
2022-11-30T07:38:28.898Z,16.00
2022-11-30T07:39:28.943Z,16.00
2022-11-30T07:40:28.871Z,20.00
2022-11-30T07:41:28.846Z,20.00
2022-11-30T07:42:28.879Z,20.00
2022-11-30T07:43:28.818Z,24.00
2022-11-30T07:44:28.823Z,24.00
2022-11-30T07:45:28.852Z,24.00
2022-11-30T07:46:28.810Z,28.00
2022-11-30T07:47:28.777Z,28.00
2022-11-30T07:48:28.771Z,28.00
2022-11-30T07:49:28.743Z,28.00
2022-11-30T07:50:28.753Z,32.00
2022-11-30T07:51:28.722Z,32.00
2022-11-30T07:52:28.739Z,36.00
2022-11-30T07:53:28.698Z,36.00
2022-11-30T07:54:28.719Z,36.00
2022-11-30T07:55:28.684Z,36.00
2022-11-30T07:56:28.687Z,36.00
2022-11-30T07:57:28.666Z,40.00
2022-11-30T07:58:28.670Z,36.00
2022-11-30T07:59:28.640Z,36.00
2022-11-30T08:00:28.667Z,40.00
2022-11-30T08:01:28.727Z,40.00
2022-11-30T08:02:28.661Z,36.00
2022-11-30T08:03:31.199Z,40.00
2022-11-30T08:04:29.657Z,40.00
2022-11-30T08:05:28.562Z,40.00
2022-11-30T08:06:28.554Z,40.00
2022-11-30T08:07:28.594Z,40.00
2022-11-30T08:08:28.557Z,40.00
2022-11-30T08:09:28.528Z,40.00
2022-11-30T08:10:28.501Z,40.00
2022-11-30T08:11:28.490Z,40.00
2022-11-30T08:12:28.500Z,40.00
2022-11-30T08:13:28.458Z,44.00
2022-11-30T08:14:28.495Z,44.00
2022-11-30T08:15:32.501Z,48.00
2022-11-30T08:16:29.562Z,48.00
2022-11-30T08:17:28.420Z,56.00
2022-11-30T08:18:28.438Z,56.00
2022-11-30T08:19:28.414Z,56.00
2022-11-30T08:20:28.416Z,56.00
2022-11-30T08:21:28.485Z,64.00
2022-11-30T08:22:28.377Z,64.00
2022-11-30T08:23:28.346Z,68.00
2022-11-30T08:24:28.447Z,68.00
2022-11-30T08:25:28.330Z,76.00
2022-11-30T08:26:28.344Z,76.00
2022-11-30T08:27:28.311Z,84.00
2022-11-30T08:28:28.367Z,88.00
2022-11-30T08:29:28.271Z,88.00
2022-11-30T08:30:32.415Z,88.00
2022-11-30T08:31:28.342Z,88.00
2022-11-30T08:32:28.255Z,96.00
2022-11-30T08:33:30.795Z,104.00
2022-11-30T08:34:28.236Z,108.00
2022-11-30T08:35:28.203Z,120.00
2022-11-30T08:36:28.220Z,128.00
2022-11-30T08:37:28.176Z,136.00
2022-11-30T08:38:28.204Z,144.00
2022-11-30T08:39:28.182Z,156.00
2022-11-30T08:40:28.197Z,172.00
2022-11-30T08:41:28.131Z,184.00
2022-11-30T08:42:28.154Z,184.00
2022-11-30T08:43:28.117Z,184.00
2022-11-30T08:44:28.124Z,184.00
2022-11-30T08:45:28.089Z,180.00
2022-11-30T08:46:50.472Z,168.00
2022-11-30T08:47:29.139Z,172.00
2022-11-30T08:48:28.067Z,184.00
2022-11-30T08:49:28.043Z,176.00
2022-11-30T08:50:28.066Z,172.00
2022-11-30T08:51:28.007Z,168.00
2022-11-30T08:52:28.028Z,172.00
2022-11-30T08:53:28.031Z,184.00
2022-11-30T08:54:28.015Z,200.00
2022-11-30T08:55:27.980Z,220.00
2022-11-30T08:56:27.976Z,216.00
2022-11-30T08:57:27.969Z,220.00
2022-11-30T08:58:27.971Z,220.00
2022-11-30T08:59:27.920Z,244.00
2022-11-30T09:00:28.063Z,244.00
2022-11-30T09:01:29.915Z,228.00
2022-11-30T09:02:27.945Z,212.00
2022-11-30T09:03:27.895Z,208.00
2022-11-30T09:04:27.897Z,208.00
2022-11-30T09:05:27.850Z,228.00
2022-11-30T09:06:27.871Z,196.00
2022-11-30T09:07:27.886Z,180.00
2022-11-30T09:08:27.852Z,172.00
2022-11-30T09:09:27.797Z,180.00
2022-11-30T09:10:27.827Z,180.00
2022-11-30T09:11:27.799Z,184.00
2022-11-30T09:12:27.806Z,192.00
2022-11-30T09:13:27.757Z,196.00
2022-11-30T09:14:27.788Z,196.00
2022-11-30T09:15:27.742Z,200.00
2022-11-30T09:16:27.760Z,188.00
2022-11-30T09:17:27.726Z,196.00
2022-11-30T09:18:27.712Z,200.00
2022-11-30T09:19:27.697Z,196.00
2022-11-30T09:20:27.698Z,200.00
2022-11-30T09:21:27.680Z,200.00
2022-11-30T09:22:27.685Z,184.00
2022-11-30T09:23:27.645Z,168.00
2022-11-30T09:24:27.646Z,160.00
2022-11-30T09:25:27.617Z,152.00
2022-11-30T09:26:27.644Z,144.00
2022-11-30T09:27:27.842Z,132.00
2022-11-30T09:28:27.610Z,128.00
2022-11-30T09:29:27.591Z,120.00
2022-11-30T09:30:27.647Z,116.00
2022-11-30T09:31:27.554Z,112.00
2022-11-30T09:32:27.558Z,112.00
2022-11-30T09:33:27.549Z,104.00
2022-11-30T09:34:27.538Z,100.00
2022-11-30T09:35:27.680Z,96.00
2022-11-30T09:36:27.508Z,96.00
2022-11-30T09:37:27.481Z,88.00
2022-11-30T09:38:27.489Z,84.00
2022-11-30T09:39:27.487Z,80.00
2022-11-30T09:40:32.356Z,76.00
2022-11-30T09:41:28.435Z,72.00
2022-11-30T09:42:27.440Z,72.00
2022-11-30T09:43:27.410Z,84.00
2022-11-30T09:44:27.430Z,76.00
2022-11-30T09:45:27.452Z,76.00
2022-11-30T09:46:27.494Z,76.00
2022-11-30T09:47:27.661Z,84.00
2022-11-30T09:48:27.374Z,84.00
2022-11-30T09:49:27.363Z,80.00
2022-11-30T09:50:27.421Z,80.00
2022-11-30T09:51:27.343Z,84.00
2022-11-30T09:52:27.320Z,84.00
2022-11-30T09:53:29.734Z,80.00
2022-11-30T09:54:27.313Z,84.00
2022-11-30T09:55:27.318Z,96.00
2022-11-30T09:56:27.285Z,100.00
2022-11-30T09:57:27.260Z,100.00
2022-11-30T09:58:27.255Z,100.00
2022-11-30T09:59:27.237Z,96.00
2022-11-30T10:00:27.220Z,96.00
2022-11-30T10:01:30.569Z,96.00
2022-11-30T10:02:28.444Z,96.00
2022-11-30T10:03:27.228Z,108.00
2022-11-30T10:04:27.183Z,124.00
2022-11-30T10:05:27.161Z,128.00
2022-11-30T10:06:27.182Z,140.00
2022-11-30T10:07:27.171Z,148.00
2022-11-30T10:08:27.161Z,156.00
2022-11-30T10:09:27.112Z,156.00
2022-11-30T10:10:34.546Z,168.00
2022-11-30T10:11:28.098Z,172.00
2022-11-30T10:12:27.098Z,160.00
2022-11-30T10:13:27.064Z,176.00
2022-11-30T10:14:27.093Z,176.00
2022-11-30T10:15:27.046Z,176.00
2022-11-30T10:16:27.117Z,196.00
2022-11-30T10:17:27.020Z,232.00
2022-11-30T10:18:27.021Z,232.00
2022-11-30T10:19:27.045Z,228.00
2022-11-30T10:20:26.992Z,224.00
2022-11-30T10:21:26.982Z,232.00
2022-11-30T10:22:26.971Z,236.00
2022-11-30T10:23:26.976Z,248.00
2022-11-30T10:24:26.944Z,272.00
2022-11-30T10:25:26.920Z,276.00
2022-11-30T10:26:26.928Z,284.00
2022-11-30T10:27:26.908Z,284.00
2022-11-30T10:29:27.891Z,268.00
2022-11-30T10:30:26.887Z,248.00
2022-11-30T10:31:26.893Z,252.00
2022-11-30T10:32:26.873Z,276.00
2022-11-30T10:33:26.832Z,284.00
2022-11-30T10:34:26.852Z,264.00
2022-11-30T10:35:26.807Z,232.00
2022-11-30T10:36:26.822Z,212.00
2022-11-30T10:37:26.780Z,212.00
2022-11-30T10:38:26.788Z,216.00
2022-11-30T10:39:26.776Z,212.00
2022-11-30T10:40:26.777Z,208.00
2022-11-30T10:41:26.735Z,216.00
2022-11-30T10:42:26.768Z,216.00
2022-11-30T10:43:26.713Z,204.00
2022-11-30T10:44:26.729Z,200.00
2022-11-30T10:45:26.709Z,184.00
2022-11-30T10:46:26.752Z,164.00
2022-11-30T10:47:26.661Z,164.00
2022-11-30T10:48:26.676Z,156.00
2022-11-30T10:49:26.643Z,160.00
2022-11-30T10:50:26.671Z,152.00
2022-11-30T10:51:26.628Z,136.00
2022-11-30T10:52:26.644Z,144.00
2022-11-30T10:53:26.595Z,152.00
2022-11-30T10:54:26.595Z,156.00
2022-11-30T10:55:26.611Z,156.00
2022-11-30T10:56:26.617Z,160.00
2022-11-30T10:57:26.545Z,144.00
2022-11-30T10:58:26.570Z,140.00
2022-11-30T10:59:26.523Z,128.00
2022-11-30T11:00:26.545Z,132.00
2022-11-30T11:01:26.523Z,124.00
2022-11-30T11:02:26.552Z,112.00
2022-11-30T11:03:26.476Z,108.00
2022-11-30T11:04:26.550Z,100.00
2022-11-30T11:05:26.505Z,96.00
2022-11-30T11:06:26.471Z,96.00
2022-11-30T11:07:26.522Z,100.00
2022-11-30T11:08:26.499Z,104.00
2022-11-30T11:09:26.424Z,104.00
2022-11-30T11:10:26.443Z,104.00
2022-11-30T11:11:26.420Z,104.00
2022-11-30T11:12:26.380Z,104.00
2022-11-30T11:13:26.368Z,100.00
2022-11-30T11:14:26.440Z,104.00
2022-11-30T11:15:26.376Z,100.00
2022-11-30T11:16:26.627Z,100.00
2022-11-30T11:17:26.353Z,100.00
2022-11-30T11:18:26.323Z,96.00
2022-11-30T11:19:26.289Z,96.00
2022-11-30T11:20:26.307Z,92.00
2022-11-30T11:21:26.281Z,96.00
2022-11-30T11:22:26.261Z,100.00
2022-11-30T11:23:26.242Z,104.00
2022-11-30T11:24:26.259Z,104.00
2022-11-30T11:25:26.255Z,100.00
2022-11-30T11:26:26.248Z,104.00
2022-11-30T11:27:26.187Z,112.00
2022-11-30T11:28:26.226Z,120.00
2022-11-30T11:29:26.170Z,124.00
2022-11-30T11:30:26.180Z,140.00
2022-11-30T11:31:26.230Z,144.00
2022-11-30T11:32:26.167Z,136.00
2022-11-30T11:33:26.128Z,132.00
2022-11-30T11:34:26.156Z,120.00
2022-11-30T11:35:26.118Z,120.00
2022-11-30T11:36:26.116Z,116.00
2022-11-30T11:37:26.110Z,120.00
2022-11-30T11:38:26.091Z,112.00
2022-11-30T11:39:26.054Z,112.00
2022-11-30T11:40:26.057Z,116.00
2022-11-30T11:41:26.035Z,116.00
2022-11-30T11:42:26.039Z,116.00
2022-11-30T11:43:26.012Z,116.00
2022-11-30T11:44:26.030Z,112.00
2022-11-30T11:45:25.985Z,108.00
2022-11-30T11:46:26.006Z,108.00
2022-11-30T11:47:25.977Z,112.00
2022-11-30T11:48:29.069Z,116.00
2022-11-30T11:49:25.963Z,120.00
2022-11-30T11:50:57.759Z,120.00
2022-11-30T11:51:26.927Z,120.00
2022-11-30T11:52:25.907Z,116.00
2022-11-30T11:53:26.099Z,112.00
2022-11-30T11:54:25.883Z,108.00
2022-11-30T11:55:25.887Z,104.00
2022-11-30T11:56:25.857Z,108.00
2022-11-30T11:57:25.850Z,112.00
2022-11-30T11:58:25.851Z,116.00
2022-11-30T11:59:30.920Z,116.00
2022-11-30T12:00:26.808Z,120.00
2022-11-30T12:01:39.692Z,112.00
2022-11-30T12:02:26.789Z,112.00
2022-11-30T12:03:25.808Z,120.00
2022-11-30T12:04:25.796Z,132.00
2022-11-30T12:05:25.778Z,136.00
2022-11-30T12:06:25.737Z,140.00
2022-11-30T12:07:25.776Z,148.00
2022-11-30T12:08:25.728Z,152.00
2022-11-30T12:09:25.714Z,148.00
2022-11-30T12:10:51.165Z,132.00
2022-11-30T12:11:26.707Z,124.00
2022-11-30T12:12:25.669Z,120.00
2022-11-30T12:13:25.755Z,128.00
2022-11-30T12:14:25.649Z,140.00
2022-11-30T12:15:25.633Z,140.00
2022-11-30T12:16:25.673Z,144.00
2022-11-30T12:17:25.636Z,144.00
2022-11-30T12:18:25.602Z,140.00
2022-11-30T12:19:25.612Z,148.00
2022-11-30T12:20:25.582Z,140.00
2022-11-30T12:21:25.598Z,136.00
2022-11-30T12:22:25.555Z,128.00
2022-11-30T12:23:25.582Z,120.00
2022-11-30T12:24:25.534Z,112.00
2022-11-30T12:25:25.529Z,112.00
2022-11-30T12:26:25.503Z,104.00
2022-11-30T12:27:25.498Z,108.00
2022-11-30T12:28:25.497Z,116.00
2022-11-30T12:29:25.499Z,120.00
2022-11-30T12:30:25.461Z,120.00
2022-11-30T12:31:25.492Z,116.00
2022-11-30T12:32:25.435Z,108.00
2022-11-30T12:33:25.486Z,104.00
2022-11-30T12:34:25.425Z,108.00
2022-11-30T12:35:25.415Z,100.00
2022-11-30T12:36:25.399Z,96.00
2022-11-30T12:37:25.403Z,92.00
2022-11-30T12:38:25.358Z,88.00
2022-11-30T12:39:25.444Z,84.00
2022-11-30T12:40:25.338Z,84.00
2022-11-30T12:41:25.347Z,92.00
2022-11-30T12:42:25.308Z,92.00
2022-11-30T12:43:25.335Z,88.00
2022-11-30T12:44:25.291Z,88.00
2022-11-30T12:45:25.370Z,88.00
2022-11-30T12:46:25.351Z,92.00
2022-11-30T12:47:25.269Z,88.00
2022-11-30T12:48:25.291Z,92.00
2022-11-30T12:49:25.282Z,96.00
2022-11-30T12:50:25.215Z,96.00
2022-11-30T12:51:29.837Z,100.00
2022-11-30T12:52:26.198Z,108.00
2022-11-30T12:53:25.209Z,116.00
2022-11-30T12:54:25.187Z,112.00
2022-11-30T12:55:25.216Z,112.00
2022-11-30T12:56:25.145Z,116.00
2022-11-30T12:57:25.169Z,104.00
2022-11-30T12:58:25.255Z,100.00
2022-11-30T12:59:25.177Z,116.00
2022-11-30T13:00:25.114Z,116.00